createdAt,value
2019-01-02T00:01:42.691Z,101217.00
2019-01-02T00:04:17.932Z,101215.28
2019-01-02T00:06:51.646Z,101215.72
2019-01-02T00:09:25.252Z,101216.59
2019-01-02T00:11:59.161Z,101222.94
2019-01-02T00:14:32.584Z,101219.55
2019-01-02T00:17:07.841Z,101219.97
2019-01-02T00:19:41.286Z,101224.64
2019-01-02T00:22:14.912Z,101227.98
2019-01-02T00:24:48.715Z,101228.87
2019-01-02T00:27:22.315Z,101237.78
2019-01-02T00:29:57.468Z,101231.81
2019-01-02T00:32:31.082Z,101233.92
2019-01-02T00:35:44.603Z,101249.20
2019-01-02T00:38:18.271Z,101248.31
2019-01-02T00:40:53.538Z,101249.61
2019-01-02T00:43:27.098Z,101259.77
2019-01-02T00:46:00.773Z,101262.30
2019-01-02T00:51:13.587Z,101265.30
2019-01-02T00:53:47.201Z,101267.78
2019-01-02T00:56:20.712Z,101263.56
2019-01-02T01:01:35.019Z,101267.37
2019-01-02T01:04:10.289Z,101283.45
2019-01-02T01:06:43.789Z,101288.97
2019-01-02T01:09:17.506Z,101294.00
2019-01-02T01:11:51.005Z,101297.02
2019-01-02T01:14:26.339Z,101295.35
2019-01-02T01:16:59.921Z,101308.89
2019-01-02T01:19:33.448Z,101313.56
2019-01-02T01:22:06.948Z,101317.38
2019-01-02T01:24:40.498Z,101324.95
2019-01-02T01:27:14.160Z,101345.66
2019-01-02T01:29:47.697Z,101340.67
2019-01-02T01:32:21.204Z,101335.52
2019-01-02T01:34:56.460Z,101354.81
2019-01-02T01:37:29.987Z,101354.50
2019-01-02T01:40:43.439Z,101357.12
2019-01-02T01:43:16.965Z,101368.59
2019-01-02T01:45:50.426Z,101368.52
2019-01-02T01:48:23.846Z,101367.67
2019-01-02T01:50:57.378Z,101373.58
2019-01-02T01:53:30.883Z,101365.09
2019-01-02T01:56:04.515Z,101376.00
2019-01-02T01:58:38.022Z,101377.30
2019-01-02T02:01:11.555Z,101377.28
2019-01-02T02:03:45.061Z,101388.26
2019-01-02T02:06:18.707Z,101400.88
2019-01-02T02:08:52.256Z,101393.73
2019-01-02T02:11:25.771Z,101401.46
2019-01-02T02:13:59.264Z,101409.87
2019-01-02T02:19:11.921Z,101405.53
2019-01-02T02:21:45.561Z,101422.05
2019-01-02T02:24:19.149Z,101422.80
2019-01-02T02:26:52.861Z,101422.80
2019-01-02T02:29:26.449Z,101436.31
2019-01-02T02:32:01.815Z,101439.73
2019-01-02T02:34:47.711Z,101415.06
2019-01-02T02:37:33.328Z,101434.69
2019-01-02T02:40:19.293Z,101432.93
2019-01-02T02:42:52.913Z,101432.93
2019-01-02T02:45:40.348Z,101436.31
2019-01-02T02:48:03.575Z,101441.23
2019-01-02T02:50:38.918Z,101440.91
2019-01-02T02:53:12.709Z,101459.95
2019-01-02T02:55:48.024Z,101448.03
2019-01-02T02:58:42.643Z,101456.98
2019-01-02T03:01:37.042Z,101456.98
2019-01-02T03:04:10.666Z,101445.98
2019-01-02T03:06:58.020Z,101456.95
2019-01-02T03:09:44.093Z,101456.95
2019-01-02T03:12:17.952Z,101464.05
2019-01-02T03:14:51.682Z,101453.11
2019-01-02T03:17:25.373Z,101462.34
2019-01-02T03:20:00.746Z,101470.00
2019-01-02T03:22:35.939Z,101476.77
2019-01-02T03:25:51.142Z,101483.50
2019-01-02T03:28:25.015Z,101479.23
2019-01-02T03:31:00.393Z,101480.50
2019-01-02T03:33:35.628Z,101475.92
2019-01-02T03:38:48.618Z,101485.23
2019-01-02T03:41:22.321Z,101492.42
2019-01-02T03:43:55.909Z,101486.08
2019-01-02T03:46:29.602Z,101496.16
2019-01-02T03:49:03.197Z,101505.47
2019-01-02T03:51:36.928Z,101493.58
2019-01-02T03:54:10.519Z,101493.19
2019-01-02T03:56:44.292Z,101501.58
2019-01-02T03:59:17.885Z,101510.54
2019-01-02T04:02:10.773Z,101512.16
2019-01-02T04:04:44.364Z,101512.16
2019-01-02T04:07:18.100Z,101517.61
2019-01-02T04:10:04.303Z,101523.58
2019-01-02T04:12:37.925Z,101523.58
2019-01-02T04:15:11.527Z,101520.06
2019-01-02T04:17:45.187Z,101530.73
2019-01-02T04:20:18.736Z,101515.58
2019-01-02T04:22:52.460Z,101536.22
2019-01-02T04:25:26.047Z,101531.16
2019-01-02T04:27:59.766Z,101531.77
2019-01-02T04:30:33.357Z,101542.72
2019-01-02T04:33:06.988Z,101541.22
2019-01-02T04:35:40.588Z,101535.72
2019-01-02T04:38:14.216Z,101544.52
2019-01-02T04:40:47.814Z,101554.33
2019-01-02T04:43:21.468Z,101552.20
2019-01-02T04:45:55.057Z,101551.33
2019-01-02T04:48:28.701Z,101544.89
2019-01-02T04:51:02.308Z,101549.96
2019-01-02T04:53:55.030Z,101555.97
2019-01-02T04:56:28.510Z,101555.97
2019-01-02T04:59:01.887Z,101566.59
2019-01-02T05:01:35.291Z,101571.23
2019-01-02T05:04:08.665Z,101571.70
2019-01-02T05:06:42.071Z,101573.02
2019-01-02T05:09:15.512Z,101578.14
2019-01-02T05:11:48.923Z,101582.71
2019-01-02T05:14:22.393Z,101590.66
2019-01-02T05:16:55.741Z,101588.62
2019-01-02T05:19:48.649Z,101596.53
2019-01-02T05:22:22.241Z,101596.53
2019-01-02T05:24:55.891Z,101601.74
2019-01-02T05:27:29.483Z,101611.33
2019-01-02T05:33:02.326Z,101611.79
2019-01-02T05:35:36.028Z,101615.36
2019-01-02T05:38:09.620Z,101620.06
2019-01-02T05:40:43.235Z,101621.94
2019-01-02T05:43:16.822Z,101629.92
2019-01-02T05:45:50.468Z,101633.32
2019-01-02T05:48:24.074Z,101630.67
2019-01-02T05:50:57.694Z,101637.40
2019-01-02T05:53:31.288Z,101637.40
2019-01-02T05:56:04.944Z,101648.77
2019-01-02T05:58:38.531Z,101648.44
2019-01-02T06:01:12.237Z,101654.77
2019-01-02T06:03:45.820Z,101660.61
2019-01-02T06:06:19.435Z,101668.69
2019-01-02T06:08:53.029Z,101672.97
2019-01-02T06:11:26.684Z,101672.86
2019-01-02T06:14:00.272Z,101679.99
2019-01-02T06:16:33.983Z,101680.61
2019-01-02T06:19:07.574Z,101687.55
2019-01-02T06:21:41.206Z,101696.91
2019-01-02T06:24:14.792Z,101700.12
2019-01-02T06:26:48.461Z,101703.56
2019-01-02T06:29:22.055Z,101704.41
2019-01-02T06:31:55.702Z,101705.61
2019-01-02T06:34:29.288Z,101710.01
2019-01-02T06:39:42.034Z,101722.64
2019-01-02T06:42:15.659Z,101731.33
2019-01-02T06:44:49.251Z,101725.41
2019-01-02T06:47:22.878Z,101733.03
2019-01-02T06:50:36.362Z,101736.59
2019-01-02T06:53:09.995Z,101742.20
2019-01-02T06:55:43.589Z,101753.30
2019-01-02T06:58:17.312Z,101755.50
2019-01-02T07:01:30.742Z,101754.28
2019-01-02T07:04:04.375Z,101756.52
2019-01-02T07:06:57.238Z,101759.45
2019-01-02T07:09:30.950Z,101759.45
2019-01-02T07:12:04.548Z,101777.89
2019-01-02T07:14:38.164Z,101788.03
2019-01-02T07:17:11.785Z,101791.66
2019-01-02T07:19:45.458Z,101787.56
2019-01-02T07:22:19.046Z,101802.94
2019-01-02T07:24:53.446Z,101810.38
2019-01-02T07:27:28.008Z,101815.67
2019-01-02T07:30:01.636Z,101825.45
2019-01-02T07:32:35.227Z,101828.47
2019-01-02T07:35:48.748Z,101838.75
2019-01-02T07:39:02.229Z,101832.93
2019-01-02T07:42:14.448Z,101839.17
2019-01-02T07:45:26.621Z,101850.89
2019-01-02T07:48:40.088Z,101851.77
2019-01-02T07:51:53.576Z,101863.20
2019-01-02T07:55:05.805Z,101867.33
2019-01-02T07:58:19.300Z,101870.37
2019-01-02T08:01:31.504Z,101866.91
2019-01-02T08:04:43.727Z,101883.55
2019-01-02T08:07:56.293Z,101888.98
2019-01-02T08:11:08.423Z,101881.84
2019-01-02T08:14:21.962Z,101887.34
2019-01-02T08:17:35.477Z,101889.34
2019-01-02T08:20:47.653Z,101900.99
2019-01-02T08:24:01.162Z,101912.38
2019-01-02T08:27:13.367Z,101909.42
2019-01-02T08:30:25.600Z,101918.61
2019-01-02T08:33:37.797Z,101928.89
2019-01-02T08:36:51.288Z,101925.81
2019-01-02T08:40:03.596Z,101937.46
2019-01-02T08:43:16.030Z,101946.97
2019-01-02T08:46:29.539Z,101951.63
2019-01-02T08:49:42.985Z,101953.38
2019-01-02T08:52:56.516Z,101962.64
2019-01-02T08:56:09.950Z,101968.63
2019-01-02T08:59:22.035Z,101965.73
2019-01-02T09:02:35.418Z,101977.64
2019-01-02T09:05:48.935Z,101973.34
2019-01-02T09:09:01.024Z,101982.58
2019-01-02T09:12:14.466Z,101987.62
2019-01-02T09:15:28.063Z,101997.23
2019-01-02T09:18:41.536Z,102008.14
2019-01-02T09:21:54.943Z,102005.98
2019-01-02T09:25:08.430Z,102025.41
2019-01-02T09:28:21.934Z,102022.89
2019-01-02T09:31:35.310Z,102026.81
2019-01-02T09:35:03.599Z,102034.15
2019-01-02T09:38:04.593Z,102036.56
2019-01-02T09:41:18.063Z,102039.17
2019-01-02T09:44:31.484Z,102043.41
2019-01-02T09:47:44.975Z,102056.45
2019-01-02T09:50:58.426Z,102066.59
2019-01-02T09:54:11.904Z,102069.36
2019-01-02T09:57:25.424Z,102060.75
2019-01-02T10:00:53.117Z,102060.75
2019-01-02T10:03:54.023Z,102075.64
2019-01-02T10:07:06.217Z,102077.31
2019-01-02T10:10:19.659Z,102085.44
2019-01-02T10:13:31.835Z,102082.17
2019-01-02T10:16:17.208Z,102089.02
2019-01-02T10:19:30.691Z,102089.02
2019-01-02T10:22:44.183Z,102092.06
2019-01-02T10:25:57.699Z,102092.06
2019-01-02T10:29:09.892Z,102098.19
2019-01-02T10:32:22.095Z,102098.19
2019-01-02T10:35:35.830Z,102088.80
2019-01-02T10:38:48.307Z,102091.84
2019-01-02T10:42:00.509Z,102099.98
2019-01-02T10:45:13.967Z,102104.13
2019-01-02T10:48:27.471Z,102110.05
2019-01-02T10:51:39.648Z,102116.27
2019-01-02T10:54:51.858Z,102128.13
2019-01-02T10:58:05.521Z,102122.39
2019-01-02T11:01:17.734Z,102131.28
2019-01-02T11:04:31.163Z,102131.28
2019-01-02T11:07:44.677Z,102131.64
2019-01-02T11:10:56.852Z,102144.17
2019-01-02T11:14:09.056Z,102144.17
2019-01-02T11:17:22.480Z,102144.82
2019-01-02T11:20:35.934Z,102151.69
2019-01-02T11:23:48.099Z,102151.69
2019-01-02T11:27:00.306Z,102138.20
2019-01-02T11:30:13.771Z,102156.33
2019-01-02T11:33:26.032Z,102154.29
2019-01-02T11:36:38.218Z,102162.19
2019-01-02T11:39:50.524Z,102163.58
2019-01-02T11:43:03.975Z,102163.58
2019-01-02T11:45:37.594Z,102168.53
2019-01-02T11:48:11.181Z,102166.91
2019-01-02T11:51:04.286Z,102167.39
2019-01-02T11:53:37.820Z,102162.06
2019-01-02T11:56:11.549Z,102182.50
2019-01-02T11:58:49.961Z,102164.38
2019-01-02T12:01:20.487Z,102174.68
2019-01-02T12:03:54.071Z,102175.52
2019-01-02T12:06:46.961Z,102180.68
2019-01-02T12:10:00.333Z,102180.68
2019-01-02T12:12:33.787Z,102185.52
2019-01-02T12:15:26.667Z,102179.26
2019-01-02T12:18:00.299Z,102179.26
2019-01-02T12:20:33.885Z,102182.27
2019-01-02T12:23:07.529Z,102183.01
2019-01-02T12:25:41.109Z,102188.70
2019-01-02T12:28:33.998Z,102183.13
2019-01-02T12:31:07.600Z,102183.13
2019-01-02T12:33:41.215Z,102196.53
2019-01-02T12:36:14.797Z,102203.66
2019-01-02T12:38:48.517Z,102203.48
2019-01-02T12:41:22.101Z,102200.42
2019-01-02T12:46:34.360Z,102209.94
2019-01-02T12:49:07.991Z,102218.06
2019-01-02T12:51:41.595Z,102205.58
2019-01-02T12:54:15.226Z,102216.02
2019-01-02T12:56:48.808Z,102206.13
2019-01-02T13:00:02.518Z,102213.14
2019-01-02T13:03:15.944Z,102220.97
2019-01-02T13:06:29.649Z,102221.05
2019-01-02T13:09:43.124Z,102228.89
2019-01-02T13:12:55.326Z,102224.45
2019-01-02T13:16:08.758Z,102226.12
2019-01-02T13:19:20.884Z,102231.83
2019-01-02T13:22:34.302Z,102230.09
2019-01-02T13:25:47.760Z,102231.62
2019-01-02T13:29:01.190Z,102244.28
2019-01-02T13:32:14.714Z,102253.17
2019-01-02T13:35:28.137Z,102247.44
2019-01-02T13:38:41.682Z,102256.00
2019-01-02T13:41:55.173Z,102258.39
2019-01-02T13:45:08.640Z,102261.20
2019-01-02T13:48:22.120Z,102269.45
2019-01-02T13:51:35.592Z,102277.44
2019-01-02T13:54:09.170Z,102274.20
2019-01-02T13:56:42.721Z,102279.06
2019-01-02T13:59:16.309Z,102282.62
2019-01-02T14:01:49.966Z,102288.50
2019-01-02T14:04:23.904Z,102289.06
2019-01-02T14:06:57.727Z,102293.45
2019-01-02T14:09:31.589Z,102294.06
2019-01-02T14:12:05.401Z,102293.28
2019-01-02T14:18:07.349Z,102307.70
2019-01-02T14:20:41.114Z,102307.70
2019-01-02T14:23:41.663Z,102303.74
2019-01-02T14:26:15.253Z,102303.74
2019-01-02T14:29:08.144Z,102324.67
2019-01-02T14:31:41.737Z,102324.67
2019-01-02T14:34:15.452Z,102326.79
2019-01-02T14:36:49.182Z,102325.42
2019-01-02T14:39:22.895Z,102324.63
2019-01-02T14:41:56.522Z,102336.11
2019-01-02T14:44:30.229Z,102328.39
2019-01-02T14:47:23.100Z,102344.21
2019-01-02T14:50:16.101Z,102343.75
2019-01-02T14:52:49.689Z,102343.75
2019-01-02T14:55:42.677Z,102354.51
2019-01-02T14:58:16.261Z,102354.51
2019-01-02T15:00:49.890Z,102361.49
2019-01-02T15:03:23.472Z,102362.45
2019-01-02T15:06:16.179Z,102371.47
2019-01-02T15:08:49.518Z,102366.20
2019-01-02T15:11:22.981Z,102366.20
2019-01-02T15:13:56.328Z,102370.48
2019-01-02T15:16:29.913Z,102370.48
2019-01-02T15:19:03.317Z,102373.91
2019-01-02T15:21:36.758Z,102376.59
2019-01-02T15:24:10.102Z,102380.31
2019-01-02T15:26:43.468Z,102386.70
2019-01-02T15:29:17.127Z,102396.17
2019-01-02T15:31:50.486Z,102390.19
2019-01-02T15:34:23.891Z,102398.09
2019-01-02T15:39:36.567Z,102401.08
2019-01-02T15:42:10.160Z,102395.16
2019-01-02T15:44:43.558Z,102393.23
2019-01-02T15:47:16.927Z,102399.09
2019-01-02T15:49:50.259Z,102398.30
2019-01-02T15:52:23.624Z,102407.75
2019-01-02T15:54:57.032Z,102402.27
2019-01-02T15:57:30.408Z,102410.60
2019-01-02T16:00:43.928Z,102406.27
2019-01-02T16:03:17.580Z,102409.30
2019-01-02T16:05:51.173Z,102410.61
2019-01-02T16:08:24.799Z,102418.84
2019-01-02T16:10:58.387Z,102416.69
2019-01-02T16:13:32.089Z,102420.39
2019-01-02T16:16:05.695Z,102423.27
2019-01-02T16:18:39.345Z,102423.81
2019-01-02T16:21:12.944Z,102430.09
2019-01-02T16:23:46.572Z,102432.65
2019-01-02T16:26:20.161Z,102438.55
2019-01-02T16:28:53.954Z,102442.08
2019-01-02T16:31:27.547Z,102435.20
2019-01-02T16:34:01.191Z,102443.92
2019-01-02T16:36:34.848Z,102446.50
2019-01-02T16:39:48.292Z,102446.09
2019-01-02T16:42:41.201Z,102442.33
2019-01-02T16:47:53.670Z,102450.78
2019-01-02T16:53:06.505Z,102450.27
2019-01-02T16:58:19.412Z,102457.84
2019-01-02T17:00:53.130Z,102454.45
2019-01-02T17:03:26.712Z,102454.04
2019-01-02T17:06:00.267Z,102464.27
2019-01-02T17:08:33.874Z,102468.31
2019-01-02T17:11:07.498Z,102465.95
2019-01-02T17:13:41.083Z,102472.48
2019-01-02T17:16:14.807Z,102478.82
2019-01-02T17:18:48.395Z,102467.63
2019-01-02T17:21:22.202Z,102470.54
2019-01-02T17:23:55.786Z,102473.55
2019-01-02T17:26:29.418Z,102480.23
2019-01-02T17:29:03.007Z,102476.05
2019-01-02T17:31:36.634Z,102479.84
2019-01-02T17:34:10.236Z,102469.34
2019-01-02T17:36:43.830Z,102483.05
2019-01-02T17:39:17.429Z,102475.95
2019-01-02T17:41:51.059Z,102484.45
2019-01-02T17:44:24.641Z,102491.63
2019-01-02T17:46:58.280Z,102494.39
2019-01-02T17:49:31.866Z,102497.41
2019-01-02T17:52:05.492Z,102498.45
2019-01-02T17:54:39.081Z,102498.56
2019-01-02T17:57:12.800Z,102496.62
2019-01-02T18:00:26.298Z,102506.42
2019-01-02T18:03:00.001Z,102505.30
2019-01-02T18:05:33.591Z,102514.67
2019-01-02T18:08:07.290Z,102514.67
2019-01-02T18:10:40.883Z,102518.95
2019-01-02T18:13:14.558Z,102521.95
2019-01-02T18:15:48.150Z,102522.81
2019-01-02T18:18:21.779Z,102528.89
2019-01-02T18:20:55.362Z,102522.73
2019-01-02T18:23:29.000Z,102523.11
2019-01-02T18:26:02.604Z,102535.11
2019-01-02T18:28:55.587Z,102533.52
2019-01-02T18:31:29.163Z,102533.27
2019-01-02T18:34:02.797Z,102533.52
2019-01-02T18:36:36.382Z,102538.58
2019-01-02T18:39:10.104Z,102544.49
2019-01-02T18:41:43.698Z,102536.44
2019-01-02T18:44:20.357Z,102542.95
2019-01-02T18:46:52.626Z,102546.50
2019-01-02T18:49:26.329Z,102548.70
2019-01-02T18:51:59.922Z,102555.36
2019-01-02T18:54:33.536Z,102554.80
2019-01-02T18:57:07.148Z,102555.52
2019-01-02T18:59:40.771Z,102560.83
2019-01-02T19:02:14.347Z,102564.78
2019-01-02T19:04:48.124Z,102564.53
2019-01-02T19:07:21.703Z,102572.41
2019-01-02T19:09:55.338Z,102565.69
2019-01-02T19:12:28.918Z,102569.36
2019-01-02T19:15:02.546Z,102570.41
2019-01-02T19:17:36.140Z,102565.55
2019-01-02T19:20:29.177Z,102571.88
2019-01-02T19:23:02.798Z,102573.95
2019-01-02T19:25:36.469Z,102569.58
2019-01-02T19:28:10.156Z,102578.76
2019-01-02T19:30:43.794Z,102574.27
2019-01-02T19:33:17.416Z,102581.84
2019-01-02T19:35:51.170Z,102581.27
2019-01-02T19:38:24.927Z,102591.83
2019-01-02T19:40:58.667Z,102589.08
2019-01-02T19:43:32.180Z,102591.12
2019-01-02T19:46:05.894Z,102586.55
2019-01-02T19:48:39.560Z,102591.48
2019-01-02T19:53:51.783Z,102599.28
2019-01-02T19:56:25.411Z,102602.89
2019-01-02T19:58:59.001Z,102604.52
2019-01-02T20:01:32.623Z,102600.92
2019-01-02T20:04:06.340Z,102598.12
2019-01-02T20:06:39.982Z,102601.09
2019-01-02T20:09:32.837Z,102592.61
2019-01-02T20:12:06.543Z,102599.33
2019-01-02T20:14:40.176Z,102603.63
2019-01-02T20:17:13.843Z,102597.41
2019-01-02T20:20:27.323Z,102597.36
2019-01-02T20:23:01.025Z,102595.69
2019-01-02T20:25:34.635Z,102602.41
2019-01-02T20:30:47.704Z,102595.16
2019-01-02T20:33:21.326Z,102601.06
2019-01-02T20:35:54.918Z,102598.17
2019-01-02T20:38:28.618Z,102594.39
2019-01-02T20:41:02.302Z,102596.91
2019-01-02T20:43:35.919Z,102593.50
2019-01-02T20:46:09.516Z,102600.70
2019-01-02T20:48:43.211Z,102590.92
2019-01-02T20:51:16.792Z,102599.71
2019-01-02T20:53:50.416Z,102602.52
2019-01-02T20:56:23.998Z,102589.03
2019-01-02T20:58:57.656Z,102589.16
2019-01-02T21:01:31.254Z,102589.75
2019-01-02T21:04:04.901Z,102589.81
2019-01-02T21:06:38.490Z,102594.27
2019-01-02T21:09:12.213Z,102593.09
2019-01-02T21:11:45.792Z,102601.06
2019-01-02T21:14:19.414Z,102598.00
2019-01-02T21:16:52.995Z,102600.48
2019-01-02T21:19:26.693Z,102597.06
2019-01-02T21:22:00.280Z,102603.13
2019-01-02T21:24:33.903Z,102603.05
2019-01-02T21:27:07.489Z,102593.81
2019-01-02T21:29:41.119Z,102598.41
2019-01-02T21:32:14.719Z,102596.69
2019-01-02T21:34:48.282Z,102593.30
2019-01-02T21:37:21.848Z,102591.42
2019-01-02T21:39:55.579Z,102589.44
2019-01-02T21:42:29.156Z,102589.64
2019-01-02T21:45:02.774Z,102594.54
2019-01-02T21:47:36.358Z,102594.02
2019-01-02T21:50:09.990Z,102589.05
2019-01-02T21:52:43.534Z,102590.69
2019-01-02T21:55:17.289Z,102587.44
2019-01-02T21:57:50.906Z,102593.75
2019-01-02T22:00:24.688Z,102591.17
2019-01-02T22:02:58.274Z,102589.91
2019-01-02T22:05:32.038Z,102588.42
2019-01-02T22:08:05.574Z,102586.53
2019-01-02T22:10:39.198Z,102586.98
2019-01-02T22:13:12.791Z,102579.22
2019-01-02T22:15:46.341Z,102588.63
2019-01-02T22:18:19.933Z,102583.05
2019-01-02T22:20:53.762Z,102577.67
2019-01-02T22:23:27.362Z,102586.22
2019-01-02T22:26:00.975Z,102583.55
2019-01-02T22:28:34.567Z,102581.03
2019-01-02T22:31:08.278Z,102578.40
2019-01-02T22:33:41.880Z,102577.91
2019-01-02T22:36:15.504Z,102575.37
2019-01-02T22:38:49.088Z,102577.41
2019-01-02T22:41:22.806Z,102575.88
2019-01-02T22:43:56.400Z,102586.92
2019-01-02T22:46:30.023Z,102583.70
2019-01-02T22:49:03.617Z,102589.41
2019-01-02T22:51:37.317Z,102592.53
2019-01-02T22:54:10.899Z,102596.83
2019-01-02T22:56:44.579Z,102589.75
2019-01-02T22:59:18.171Z,102598.14
2019-01-02T23:04:51.479Z,102603.33
2019-01-02T23:07:44.123Z,102602.27
2019-01-02T23:10:36.805Z,102609.73
2019-01-02T23:13:29.488Z,102612.16
2019-01-02T23:16:22.133Z,102616.23
2019-01-02T23:24:39.230Z,102609.92
2019-01-02T23:30:26.005Z,102607.66
2019-01-02T23:33:18.580Z,102621.36
2019-01-02T23:36:11.279Z,102625.41
2019-01-02T23:39:03.956Z,102626.20
2019-01-02T23:41:56.675Z,102629.44
2019-01-02T23:44:49.325Z,102623.69
2019-01-02T23:47:42.024Z,102624.59
2019-01-02T23:50:34.755Z,102623.69
2019-01-02T23:56:21.547Z,102617.88
